ADDS METAR Data INFO
IDs: Format: Raw Decoded Include TAF

Data at: 1248 UTC 19 Oct 2017

KDLN 191153Z AUTO 18010KT 10SM CLR 08/M06 A2990 RMK AO2 SLP093 T00831061 10106 20039 55008
KDLN 191053Z AUTO 19007KT 10SM CLR 06/M06 A2990 RMK AO2 SLP092 T00611056
KDLN 190953Z AUTO 00000KT 10SM CLR 06/M06 A2991 RMK AO2 SLP095 T00561061
KDLN 190853Z AUTO 00000KT 10SM CLR 09/M06 A2993 RMK AO2 SLP097 T00891056 56006
KDLN 190753Z AUTO 21010KT 10SM CLR 08/M04 A2993 RMK AO2 SLP099 T00831044
KDLN 190653Z AUTO 21009KT 10SM CLR 09/M04 A2994 RMK AO2 SLP103 T00891039 402000017
KDLN 190553Z AUTO 22009KT 10SM CLR 09/M03 A2995 RMK AO2 SLP109 T00891033 10161 20089 55003
KDLN 190453Z AUTO 24011KT 10SM CLR 10/M03 A2995 RMK AO2 SLP114 T01001028
KDLN 190353Z AUTO 19013KT 10SM CLR 15/M04 A2995 RMK AO2 SLP110 T01501039
KDLN 190253Z AUTO 18015KT 10SM CLR 16/M04 A2996 RMK AO2 SLP116 T01561044 56006
KDLN 190153Z AUTO 17012KT 10SM CLR 15/M05 A2996 RMK AO2 SLP124 T01501050
KDLN 190053Z AUTO 18012KT 10SM CLR 14/M04 A2997 RMK AO2 SLP132 T01391044
KDLN 182353Z AUTO 20012G18KT 10SM CLR 16/M04 A2998 RMK AO2 SLP128 T01611039 10200 20144 56012
KDLN 182253Z AUTO 24014KT 10SM CLR 18/M01 A2999 RMK AO2 SLP126 T01831011
KDLN 182153Z AUTO 24015G20KT 10SM CLR 19/M01 A3000 RMK AO2 SLP123 T01941011
KDLN 182053Z AUTO 24017G27KT 10SM CLR 18/M02 A3002 RMK AO2 PK WND 25029/2025 SLP131 T01831017 58016
KDLN 181953Z AUTO 24017G24KT 10SM OVC085 18/M04 A3004 RMK AO2 SLP136 T01781039
KDLN 181853Z AUTO 22014KT 10SM CLR 17/M07 A3006 RMK AO2 SLP145 T01721072
KDLN 181753Z AUTO 22009KT 10SM CLR 16/M06 A3007 RMK AO2 SLP153 T01561061 10156 20017 58002
KDLN 181653Z AUTO 19009KT 10SM CLR 11/M07 A3008 RMK AO2 SLP160 T01111067
KDLN 181553Z AUTO 21007KT 10SM CLR 09/M06 A3008 RMK AO2 SLP159 T00941061
KDLN 181453Z AUTO 16004KT 10SM CLR 06/M07 A3008 RMK AO2 SLP168 T00611072 53006
KDLN 181353Z AUTO 19009KT 10SM CLR 03/M07 A3006 RMK AO2 SLP164 T00331072
KDLN 181253Z AUTO 20008KT 10SM CLR 03/M08 A3006 RMK AO2 SLP164 T00281078
KDLN 181153Z AUTO 19005KT 10SM CLR 03/M08 A3006 RMK AO2 SLP152 T00331078 10117 20022 58000
KDLN 181053Z AUTO 18007KT 10SM CLR 05/M08 A3006 RMK AO2 SLP150 T00501078
KDLN 180953Z AUTO 21011KT 10SM CLR 07/M07 A3007 RMK AO2 SLP147 T00671072
KDLN 180853Z AUTO 21012KT 10SM CLR 08/M07 A3006 RMK AO2 SLP144 T00831072 50004
KDLN 180753Z AUTO 21012KT 10SM CLR 10/M07 A3007 RMK AO2 SLP140 T01001072
KDLN 180653Z AUTO 19011KT 10SM CLR 11/M07 A3007 RMK AO2 SLP144 T01061072 402060011
KDLN 180553Z AUTO 15010KT 10SM CLR 09/M07 A3005 RMK AO2 SLP144 T00891072 10183 20078 53029
KDLN 180453Z AUTO 20013KT 10SM CLR 10/M07 A3000 RMK AO2 SLP132 T01001072
KDLN 180353Z AUTO 10SM CLR 14/M08 A2999 RMK AO2 SLP130 T01391083
KDLN 180253Z AUTO 16007KT 10SM CLR 12/M07 A2995 RMK AO2 SLP123 T01171067 53003
KDLN 180153Z AUTO 20014KT 10SM CLR 13/M07 A2994 RMK AO2 SLP123 T01331067
KDLN 180053Z AUTO 23013KT 10SM CLR 13/M06 A2993 RMK AO2 SLP117 T01331061